Terminal Aerodrome Forecast
Issued by NWS Wilmington, OH

Current Version | Previous Version | Graphics & Text | Print | Product List | Glossary On
Versions: 1 2 3 4 5 6 7 8 9 10 11 12 13 14 15 16 17 18 19 20 21
700
FTUS41 KILN 310855 AAA
TAFCVG
TAF AMD
KCVG 310855Z 3109/0112 VRB03KT P6SM FEW080 BKN250
     FM311800 05006KT P6SM SCT080 OVC250
     FM010000 08004KT P6SM SCT150 OVC200
     FM010700 08004KT P6SM FEW080=

USA.gov is the U.S. government's official web portal to all federal, state and local government web resources and services.